Time;durP1;ratioP1;P1;durP2;ratioP2;P2;SDS_P1;SDS_P2;PMS_P1;PMS_P2;Temp;Humidity;BMP_temperature;BMP_pressure;BME280_temperature;BME280_humidity;BME280_pressure;Samples;Min_cycle;Max_cycle;Signal;HPM_P1;HPM_P2
2021/03/17 04:13:19;;;;;;;16.20;13.83;;;3.30;99.90;;;;;;4961605;29;20497;-92
2021/03/17 04:16:04;;;;;;;16.13;13.93;;;3.20;99.90;;;;;;4927052;29;20443;-92
2021/03/17 04:18:37;;;;;;;15.93;12.50;;;3.20;99.90;;;;;;4942763;29;20817;-92
2021/03/17 04:32:26;;;;;;;15.30;12.10;;;3.20;99.90;;;;;;4954461;29;20454;-92
2021/03/17 04:34:58;;;;;;;15.37;13.87;;;3.20;99.90;;;;;;4949835;29;20498;-92
2021/03/17 04:37:42;;;;;;;14.33;12.87;;;3.20;99.90;;;;;;4966600;29;20451;-92
2021/03/17 05:11:50;;;;;;;12.30;11.03;;;3.20;99.90;;;;;;4981864;28;20502;-92
2021/03/17 05:19:50;;;;;;;12.93;11.37;;;3.20;99.90;;;;;;4984647;28;20560;-93
2021/03/17 05:30:48;;;;;;;15.03;12.10;;;3.20;99.90;;;;;;5003850;28;20500;-92
2021/03/17 05:38:57;;;;;;;17.67;15.87;;;3.30;99.90;;;;;;4983484;28;20740;-92
2021/03/17 05:41:29;;;;;;;16.80;15.00;;;3.20;99.90;;;;;;5002395;28;20489;-92
2021/03/17 05:44:03;;;;;;;19.30;17.10;;;3.30;99.90;;;;;;5002820;28;20488;-92
2021/03/17 05:46:33;;;;;;;15.53;13.93;;;3.20;99.90;;;;;;4997640;28;20503;-92
2021/03/17 05:49:00;;;;;;;17.70;15.70;;;3.30;99.90;;;;;;5004613;28;20979;-92
2021/03/17 05:51:32;;;;;;;18.47;16.07;;;3.30;99.90;;;;;;5004817;28;20895;-93
2021/03/17 06:38:47;;;;;;;19.23;15.87;;;3.40;99.90;;;;;;4996726;28;20489;-90
2021/03/17 06:41:15;;;;;;;18.70;15.40;;;3.50;99.90;;;;;;4998734;28;20826;-91
2021/03/17 06:43:43;;;;;;;19.70;16.50;;;3.50;99.90;;;;;;4998142;28;20449;-91
2021/03/17 06:46:14;;;;;;;21.73;17.33;;;3.50;99.90;;;;;;4983206;28;20453;-91
2021/03/17 06:48:42;;;;;;;18.10;15.83;;;3.60;99.90;;;;;;4996973;28;20476;-91
2021/03/17 06:51:11;;;;;;;20.77;18.53;;;3.60;99.90;;;;;;4997167;28;20469;-91
2021/03/17 06:53:43;;;;;;;17.30;15.47;;;3.60;99.90;;;;;;4998281;28;20456;-90
2021/03/17 06:56:19;;;;;;;10.53;9.23;;;3.60;99.90;;;;;;4998309;28;20843;-91
2021/03/17 06:58:49;;;;;;;6.90;4.83;;;3.50;99.90;;;;;;4998316;28;20448;-91
2021/03/17 07:01:30;;;;;;;6.37;5.10;;;2.90;99.90;;;;;;4998628;28;20550;-91
2021/03/17 07:03:59;;;;;;;5.10;4.43;;;2.70;99.90;;;;;;4989216;28;20465;-91
2021/03/17 07:06:30;;;;;;;5.40;4.20;;;2.40;99.90;;;;;;4980668;28;20957;-92
2021/03/17 07:08:58;;;;;;;5.90;4.00;;;2.30;99.90;;;;;;4997607;28;20503;-91
2021/03/17 07:11:31;;;;;;;4.23;3.87;;;2.30;99.90;;;;;;4998529;28;20464;-91
2021/03/17 07:14:03;;;;;;;5.17;4.67;;;2.30;99.90;;;;;;4994452;28;20973;-92
2021/03/17 07:16:39;;;;;;;5.17;4.67;;;2.40;99.90;;;;;;4998222;28;20473;-91
2021/03/17 07:19:07;;;;;;;5.50;5.00;;;2.50;99.90;;;;;;4998035;28;20472;-90
2021/03/17 07:21:41;;;;;;;5.80;5.20;;;2.70;99.90;;;;;;4997599;28;20555;-91
2021/03/17 07:24:09;;;;;;;5.53;4.43;;;2.70;99.90;;;;;;4998058;28;20472;-91
2021/03/17 07:26:38;;;;;;;6.60;5.20;;;2.70;99.90;;;;;;4998203;28;20771;-91
2021/03/17 07:29:11;;;;;;;6.67;5.47;;;2.80;99.90;;;;;;4997815;28;20511;-91
2021/03/17 07:31:40;;;;;;;9.20;5.70;;;2.90;99.90;;;;;;4997764;28;20768;-91
2021/03/17 07:34:18;;;;;;;6.80;6.10;;;3.00;99.90;;;;;;4998430;28;20773;-91
2021/03/17 07:36:47;;;;;;;8.50;5.77;;;3.30;99.90;;;;;;4997797;28;20941;-91
2021/03/17 07:39:18;;;;;;;7.17;5.90;;;3.50;99.90;;;;;;4997674;28;20483;-91
2021/03/17 07:41:46;;;;;;;7.13;5.53;;;3.60;99.90;;;;;;4997477;28;20825;-91
2021/03/17 07:44:14;;;;;;;6.50;5.50;;;3.40;99.90;;;;;;4995733;28;20476;-91
2021/03/17 07:46:45;;;;;;;6.10;5.20;;;3.60;99.90;;;;;;4997328;28;20789;-91
2021/03/17 07:49:13;;;;;;;6.37;5.20;;;3.60;99.90;;;;;;4997651;28;20479;-90
2021/03/17 07:51:49;;;;;;;6.00;4.60;;;3.60;99.90;;;;;;4998059;28;20786;-91
2021/03/17 07:54:27;;;;;;;7.00;5.30;;;3.60;99.90;;;;;;4997522;28;20491;-91
2021/03/17 07:56:55;;;;;;;6.43;5.70;;;3.70;99.90;;;;;;4998282;28;20465;-91
2021/03/17 07:59:23;;;;;;;5.97;5.40;;;3.70;99.90;;;;;;5001511;28;20535;-91
2021/03/17 08:01:51;;;;;;;5.57;4.90;;;3.90;99.90;;;;;;4984181;28;20465;-91
2021/03/17 08:04:29;;;;;;;8.83;5.17;;;3.70;99.90;;;;;;4990048;28;20994;-91
2021/03/17 08:06:57;;;;;;;4.70;4.30;;;3.60;99.90;;;;;;4999748;28;20518;-91
2021/03/17 08:09:24;;;;;;;9.53;4.73;;;4.20;99.90;;;;;;5000051;28;20468;-92
2021/03/17 08:11:52;;;;;;;5.57;4.60;;;4.60;99.90;;;;;;4998372;28;20484;-91
2021/03/17 08:14:27;;;;;;;6.00;4.07;;;5.20;99.90;;;;;;4999492;28;20467;-92
2021/03/17 08:16:55;;;;;;;4.83;3.80;;;5.30;99.90;;;;;;5000146;28;20510;-92
2021/03/17 08:19:26;;;;;;;7.73;3.67;;;5.30;99.90;;;;;;4983296;28;20503;-92
2021/03/17 08:22:01;;;;;;;4.17;3.10;;;4.90;99.90;;;;;;5000733;28;20763;-92
2021/03/17 08:25:19;;;;;;;6.00;3.90;;;4.40;99.90;;;;;;5001178;28;20472;-92
2021/03/17 08:39:59;;;;;;;8.00;4.80;;;5.60;99.90;;;;;;4995584;28;20449;-93
2021/03/17 10:10:21;;;;;;;4.00;3.50;;;5.00;1.00;;;;;;669689;23;21911;31
2021/03/17 10:12:52;;;;;;;4.33;3.90;;;5.60;99.90;;;;;;4973046;28;20465;-91
2021/03/17 10:15:21;;;;;;;4.07;3.30;;;5.50;99.90;;;;;;4979293;28;20453;-92
2021/03/17 10:17:51;;;;;;;4.50;3.70;;;5.50;85.00;;;;;;4979679;28;20450;-92
2021/03/17 10:20:20;;;;;;;3.80;3.17;;;5.70;1.00;;;;;;4978421;28;20470;-92
2021/03/17 10:22:54;;;;;;;5.73;4.03;;;5.50;99.90;;;;;;4979247;28;20613;-92
2021/03/17 10:25:37;;;;;;;4.30;3.90;;;5.70;99.90;;;;;;4978818;28;20474;-92
2021/03/17 10:28:21;;;;;;;5.67;4.70;;;5.60;99.90;;;;;;4977719;28;20485;-92
2021/03/17 10:30:51;;;;;;;5.27;4.70;;;5.50;99.90;;;;;;4979181;28;20544;-92
2021/03/17 10:33:29;;;;;;;6.23;4.70;;;5.50;99.90;;;;;;4979064;28;20454;-92
2021/03/17 10:35:58;;;;;;;4.97;4.20;;;5.20;1.00;;;;;;4979599;28;20481;-91
2021/03/17 10:38:34;;;;;;;5.80;4.00;;;5.10;1.00;;;;;;4978443;28;20465;-92
2021/03/17 10:41:42;;;;;;;5.03;4.47;;;5.10;67.30;;;;;;4979157;28;20465;-92
2021/03/17 13:09:16;;;;;;;3.87;3.17;;;6.50;1.00;;;;;;669452;23;22035;31
2021/03/17 13:11:55;;;;;;;3.67;2.60;;;6.90;1.00;;;;;;4962411;28;20818;-92
2021/03/17 13:14:31;;;;;;;3.20;2.47;;;6.90;1.00;;;;;;4981612;28;20473;-92
2021/03/17 13:17:03;;;;;;;4.33;3.00;;;6.80;1.00;;;;;;4981430;28;20480;-92
2021/03/17 13:19:46;;;;;;;5.90;2.90;;;6.90;1.00;;;;;;4981447;28;20990;-92
2021/03/17 13:22:15;;;;;;;4.40;3.10;;;6.80;1.00;;;;;;4981185;28;20509;-92
2021/03/17 13:25:17;;;;;;;4.97;3.10;;;7.00;1.00;;;;;;4965237;28;20470;-92
